createdAt,value
2023-05-05T00:00:04.862Z,7.26
2023-05-05T00:01:01.830Z,7.25
2023-05-05T00:03:01.982Z,7.22
2023-05-05T00:05:02.551Z,7.18
2023-05-05T00:06:01.619Z,7.17
2023-05-05T00:07:01.996Z,7.17
2023-05-05T00:08:03.127Z,7.15
2023-05-05T00:09:03.663Z,7.12
2023-05-05T00:10:01.851Z,7.1
2023-05-05T00:11:03.685Z,7.05
2023-05-05T00:12:01.513Z,7.02
2023-05-05T00:13:02.037Z,7
2023-05-05T00:14:01.528Z,6.99
2023-05-05T00:15:02.625Z,6.98
2023-05-05T00:16:03.341Z,6.99
2023-05-05T00:17:03.991Z,6.99
2023-05-05T00:18:01.868Z,6.99
2023-05-05T00:19:02.151Z,6.98
2023-05-05T00:20:01.895Z,6.95
2023-05-05T00:21:02.362Z,6.93
2023-05-05T00:22:01.825Z,6.91
2023-05-05T00:23:01.705Z,6.91
2023-05-05T00:24:02.145Z,6.91
2023-05-05T00:25:02.667Z,6.9
2023-05-05T00:26:03.988Z,6.89
2023-05-05T00:27:01.747Z,6.9
2023-05-05T00:28:02.347Z,6.91
2023-05-05T00:29:01.649Z,6.93
2023-05-05T00:30:02.882Z,6.94
2023-05-05T00:31:01.884Z,6.9
2023-05-05T00:32:02.316Z,6.86
2023-05-05T00:33:02.052Z,6.83
2023-05-05T00:34:02.156Z,6.8
2023-05-05T00:35:02.359Z,6.79
2023-05-05T00:36:01.366Z,6.79
2023-05-05T00:37:03.506Z,6.8
2023-05-05T00:38:02.310Z,6.82
2023-05-05T00:39:03.424Z,6.79
2023-05-05T00:40:02.501Z,6.8
2023-05-05T00:41:03.681Z,6.81
2023-05-05T00:42:01.424Z,6.81
2023-05-05T00:43:01.907Z,6.8
2023-05-05T00:44:01.423Z,6.76
2023-05-05T00:45:02.523Z,6.73
2023-05-05T00:46:01.564Z,6.74
2023-05-05T00:47:03.601Z,6.74
2023-05-05T00:48:01.584Z,6.73
2023-05-05T00:49:01.932Z,6.7
2023-05-05T00:50:01.595Z,6.7
2023-05-05T00:51:01.822Z,6.7
2023-05-05T00:52:03.048Z,6.69
2023-05-05T00:53:01.846Z,6.7
2023-05-05T00:54:02.327Z,6.68
2023-05-05T00:55:02.603Z,6.66
2023-05-05T00:56:03.096Z,6.66
2023-05-05T00:57:01.847Z,6.66
2023-05-05T00:58:01.447Z,6.64
2023-05-05T00:59:01.838Z,6.59
2023-05-05T01:00:01.721Z,6.58
2023-05-05T01:01:01.844Z,6.59
2023-05-05T01:02:02.369Z,6.57
2023-05-05T01:03:04.562Z,6.55
2023-05-05T01:04:02.029Z,6.52
2023-05-05T01:05:02.144Z,6.49
2023-05-05T01:06:02.245Z,6.45
2023-05-05T01:07:01.686Z,6.42
2023-05-05T01:08:02.172Z,6.42
2023-05-05T01:09:01.720Z,6.45
2023-05-05T01:10:18.304Z,6.44
2023-05-05T01:11:03.440Z,6.43
2023-05-05T01:12:03.999Z,6.5
2023-05-05T01:13:03.805Z,6.5
2023-05-05T01:14:03.083Z,6.5
2023-05-05T01:15:02.762Z,6.5
2023-05-05T01:16:01.582Z,6.43
2023-05-05T01:17:02.080Z,6.43
2023-05-05T01:18:01.579Z,6.4
2023-05-05T01:19:03.796Z,6.4
2023-05-05T01:20:02.337Z,6.38
2023-05-05T01:21:02.330Z,6.35
2023-05-05T01:22:01.772Z,6.36
2023-05-05T01:23:02.337Z,6.36
2023-05-05T01:24:01.855Z,6.37
2023-05-05T01:25:02.218Z,6.36
2023-05-05T01:26:02.178Z,6.36
2023-05-05T01:27:03.439Z,6.34
2023-05-05T01:28:01.460Z,6.33
2023-05-05T01:29:01.999Z,6.31
2023-05-05T01:30:02.632Z,6.28
2023-05-05T01:31:03.058Z,6.27
2023-05-05T01:32:01.825Z,6.26
2023-05-05T01:33:02.242Z,6.25
2023-05-05T01:34:01.780Z,6.22
2023-05-05T01:35:02.178Z,6.22
2023-05-05T01:36:03.697Z,6.21
2023-05-05T01:37:03.154Z,6.21
2023-05-05T01:38:01.831Z,6.2
2023-05-05T01:39:03.026Z,6.2
2023-05-05T01:40:03.558Z,6.2
2023-05-05T01:41:04.032Z,6.2
2023-05-05T01:42:01.758Z,6.2
2023-05-05T01:43:02.362Z,6.15
2023-05-05T01:44:03.369Z,6.17
2023-05-05T01:45:03.840Z,6.16
2023-05-05T01:46:01.870Z,6.16
2023-05-05T01:47:03.085Z,6.17
2023-05-05T01:48:01.894Z,6.16
2023-05-05T01:49:02.310Z,6.15
2023-05-05T01:50:01.806Z,6.14
2023-05-05T01:51:02.244Z,6.14
2023-05-05T01:52:01.755Z,6.13
2023-05-05T01:53:02.249Z,6.13
2023-05-05T01:54:03.438Z,6.11
2023-05-05T01:55:03.216Z,6.08
2023-05-05T01:56:01.828Z,6.06
2023-05-05T01:57:02.317Z,6.04
2023-05-05T01:58:01.765Z,6.01
2023-05-05T01:59:02.220Z,5.99
2023-05-05T02:00:02.481Z,5.99
2023-05-05T02:01:03.974Z,6.02
2023-05-05T02:02:01.867Z,6.04
2023-05-05T02:03:03.989Z,6
2023-05-05T02:04:01.668Z,5.97
2023-05-05T02:06:04.015Z,5.97
2023-05-05T02:07:01.513Z,5.98
2023-05-05T02:08:02.002Z,5.99
2023-05-05T02:09:01.477Z,5.97
2023-05-05T02:10:02.265Z,6
2023-05-05T02:11:01.449Z,6.05
2023-05-05T02:12:02.078Z,6.07
2023-05-05T02:13:01.537Z,6.04
2023-05-05T02:14:01.981Z,6.02
2023-05-05T02:15:02.380Z,6.07
2023-05-05T02:16:02.140Z,6.07
2023-05-05T02:17:01.615Z,6.01
2023-05-05T02:18:03.765Z,6
2023-05-05T02:19:03.225Z,6
2023-05-05T02:20:02.447Z,5.97
2023-05-05T02:21:01.599Z,5.96
2023-05-05T02:22:02.078Z,5.95
2023-05-05T02:23:01.511Z,5.95
2023-05-05T02:24:02.018Z,5.94
2023-05-05T02:25:02.237Z,5.93
2023-05-05T02:26:03.841Z,5.93
2023-05-05T02:27:03.303Z,5.92
2023-05-05T02:28:02.075Z,5.91
2023-05-05T02:29:01.607Z,5.92
2023-05-05T02:30:03.837Z,5.93
2023-05-05T02:31:01.677Z,5.92
2023-05-05T02:32:02.068Z,5.92
2023-05-05T02:33:01.627Z,5.91
2023-05-05T02:34:02.163Z,5.91
2023-05-05T02:35:02.683Z,5.89
2023-05-05T02:36:03.993Z,5.87
2023-05-05T02:37:01.843Z,5.86
2023-05-05T02:38:03.801Z,5.85
2023-05-05T02:39:01.531Z,5.83
2023-05-05T02:40:03.716Z,5.81
2023-05-05T02:41:01.537Z,5.8
2023-05-05T02:42:02.096Z,5.81
2023-05-05T02:43:01.493Z,5.79
2023-05-05T02:44:03.597Z,5.8
2023-05-05T02:45:02.193Z,5.82
2023-05-05T02:46:02.048Z,5.81
2023-05-05T02:47:01.456Z,5.79
2023-05-05T02:48:03.716Z,5.78
2023-05-05T02:49:01.466Z,5.78
2023-05-05T02:50:02.762Z,5.76
2023-05-05T02:51:01.399Z,5.75
2023-05-05T02:52:03.523Z,5.75
2023-05-05T02:53:01.360Z,5.74
2023-05-05T02:54:03.536Z,5.69
2023-05-05T02:55:02.160Z,5.67
2023-05-05T02:56:01.925Z,5.68
2023-05-05T02:57:03.042Z,5.67
2023-05-05T02:58:01.836Z,5.66
2023-05-05T02:59:03.041Z,5.64
2023-05-05T03:00:02.694Z,5.64
2023-05-05T03:01:02.973Z,5.65
2023-05-05T03:02:02.755Z,5.66
2023-05-05T03:03:02.747Z,5.68
2023-05-05T03:04:02.129Z,5.67
2023-05-05T03:05:02.263Z,5.68
2023-05-05T03:06:02.141Z,5.67
2023-05-05T03:07:01.525Z,5.66
2023-05-05T03:08:01.980Z,5.63
2023-05-05T03:09:01.526Z,5.59
2023-05-05T03:10:02.045Z,5.6
2023-05-05T03:11:01.501Z,5.62
2023-05-05T03:12:03.597Z,5.62
2023-05-05T03:13:01.666Z,5.6
2023-05-05T03:14:01.903Z,5.59
2023-05-05T03:15:02.276Z,5.57
2023-05-05T03:16:03.730Z,5.56
2023-05-05T03:17:01.754Z,5.56
2023-05-05T03:18:02.027Z,5.55
2023-05-05T03:19:01.610Z,5.56
2023-05-05T03:20:04.394Z,5.57
2023-05-05T03:21:01.856Z,5.59
2023-05-05T03:22:03.050Z,5.6
2023-05-05T03:23:01.839Z,5.59
2023-05-05T03:24:01.360Z,5.6
2023-05-05T03:25:02.648Z,5.57
2023-05-05T03:26:01.386Z,5.57
2023-05-05T03:27:01.866Z,5.59
2023-05-05T03:28:01.376Z,5.57
2023-05-05T03:29:03.534Z,5.56
2023-05-05T03:30:03.736Z,5.54
2023-05-05T03:31:02.357Z,5.52
2023-05-05T03:32:01.803Z,5.52
2023-05-05T03:33:02.355Z,5.55
2023-05-05T03:34:01.768Z,5.56
2023-05-05T03:35:02.166Z,5.55
2023-05-05T03:36:02.083Z,5.54
2023-05-05T03:37:01.597Z,5.53
2023-05-05T03:38:02.069Z,5.52
2023-05-05T03:39:01.598Z,5.51
2023-05-05T03:40:02.699Z,5.48
2023-05-05T03:41:01.707Z,5.48
2023-05-05T03:42:02.240Z,5.48
2023-05-05T03:43:01.757Z,5.47
2023-05-05T03:44:02.235Z,5.49
2023-05-05T03:45:02.480Z,5.48
2023-05-05T03:46:01.505Z,5.48
2023-05-05T03:47:01.784Z,5.46
2023-05-05T03:48:02.310Z,5.45
2023-05-05T03:49:01.864Z,5.45
2023-05-05T03:50:03.101Z,5.45
2023-05-05T03:51:01.686Z,5.46
2023-05-05T03:52:02.219Z,5.45
2023-05-05T03:53:03.347Z,5.47
2023-05-05T03:54:02.070Z,5.49
2023-05-05T03:55:02.406Z,5.48
2023-05-05T03:56:02.182Z,5.48
2023-05-05T03:57:01.607Z,5.46
2023-05-05T03:58:02.100Z,5.45
2023-05-05T03:59:03.232Z,5.42
2023-05-05T04:00:02.047Z,5.41
2023-05-05T04:01:01.513Z,5.41
2023-05-05T04:02:03.740Z,5.41
2023-05-05T04:03:01.560Z,5.43
2023-05-05T04:04:01.979Z,5.43
2023-05-05T04:05:02.585Z,5.43
2023-05-05T04:06:02.018Z,5.43
2023-05-05T04:07:01.534Z,5.45
2023-05-05T04:08:02.001Z,5.45
2023-05-05T04:09:01.541Z,5.47
2023-05-05T04:10:02.062Z,5.48
2023-05-05T04:11:03.217Z,5.5
2023-05-05T04:12:02.021Z,5.49
2023-05-05T04:13:01.517Z,5.49
2023-05-05T04:14:01.929Z,5.5
2023-05-05T04:15:02.217Z,5.52
2023-05-05T04:16:02.073Z,5.52
2023-05-05T04:17:03.127Z,5.54
2023-05-05T04:18:02.037Z,5.56
2023-05-05T04:19:03.130Z,5.57
2023-05-05T04:20:02.227Z,5.6
2023-05-05T04:21:01.467Z,5.6
2023-05-05T04:22:02.018Z,5.62
2023-05-05T04:23:01.362Z,5.63
2023-05-05T04:24:01.874Z,5.64
2023-05-05T04:25:02.628Z,5.66
2023-05-05T04:26:02.026Z,5.69
2023-05-05T04:27:01.522Z,5.71
2023-05-05T04:28:02.008Z,5.75
2023-05-05T04:29:01.617Z,5.76
2023-05-05T04:30:02.074Z,5.78
2023-05-05T04:31:01.481Z,5.77
2023-05-05T04:32:03.586Z,5.78
2023-05-05T04:33:01.452Z,5.79
2023-05-05T04:34:01.914Z,5.81
2023-05-05T04:35:02.273Z,5.81
2023-05-05T04:36:02.188Z,5.81
2023-05-05T04:37:01.685Z,5.82
2023-05-05T04:38:02.174Z,5.83
2023-05-05T04:39:01.618Z,5.85
2023-05-05T04:40:02.211Z,5.87
2023-05-05T04:41:03.442Z,5.9
2023-05-05T04:42:02.172Z,5.91
2023-05-05T04:43:01.598Z,5.93
2023-05-05T04:44:03.756Z,5.96
2023-05-05T04:45:02.350Z,5.99
2023-05-05T04:46:02.164Z,6.02
2023-05-05T04:47:01.772Z,6.05
2023-05-05T04:48:02.177Z,6.09
2023-05-05T04:49:03.361Z,6.13
2023-05-05T04:50:04.845Z,6.15
2023-05-05T04:51:01.680Z,6.19
2023-05-05T04:52:02.178Z,6.2
2023-05-05T04:53:01.688Z,6.24
2023-05-05T04:54:01.863Z,6.29
2023-05-05T04:55:03.719Z,6.34
2023-05-05T04:56:02.277Z,6.37
2023-05-05T04:57:03.449Z,6.42
2023-05-05T04:58:03.864Z,6.5
2023-05-05T04:59:01.686Z,6.55
2023-05-05T05:00:02.783Z,6.6
2023-05-05T05:03:03.116Z,6.72
2023-05-05T05:04:02.447Z,6.75
2023-05-05T05:05:02.432Z,6.82
2023-05-05T05:06:01.410Z,6.87
2023-05-05T05:07:01.867Z,6.9
2023-05-05T05:08:01.468Z,6.96
2023-05-05T05:09:03.612Z,7.01
2023-05-05T05:10:02.360Z,7.08
2023-05-05T05:11:01.785Z,7.12
2023-05-05T05:12:02.346Z,7.17
2023-05-05T05:13:01.795Z,7.24
2023-05-05T05:14:02.284Z,7.32
2023-05-05T05:15:02.630Z,7.4
2023-05-05T05:16:01.611Z,7.48
2023-05-05T05:17:02.026Z,7.59
2023-05-05T05:18:01.548Z,7.67
2023-05-05T05:19:03.689Z,7.76
2023-05-05T05:20:05.434Z,7.84
2023-05-05T05:21:01.821Z,7.9
2023-05-05T05:22:02.185Z,7.97
2023-05-05T05:23:01.618Z,8.03
2023-05-05T05:24:02.168Z,8.09
2023-05-05T05:25:02.437Z,8.18
2023-05-05T05:26:02.292Z,8.3
2023-05-05T05:27:01.721Z,8.43
2023-05-05T05:28:10.098Z,8.57
2023-05-05T05:29:01.738Z,8.7
2023-05-05T05:30:02.206Z,8.85
2023-05-05T05:31:01.622Z,8.94
2023-05-05T05:32:02.243Z,9.06
2023-05-05T05:33:01.672Z,9.17
2023-05-05T05:34:02.106Z,9.27
2023-05-05T05:35:04.539Z,9.37
2023-05-05T05:36:01.829Z,9.46
2023-05-05T05:37:02.181Z,9.51
2023-05-05T05:38:01.797Z,9.55
2023-05-05T05:39:03.833Z,9.62
2023-05-05T05:40:02.521Z,9.74
2023-05-05T05:41:02.164Z,9.86
2023-05-05T05:42:01.683Z,9.98
2023-05-05T05:43:02.190Z,10.12
2023-05-05T05:44:01.701Z,10.22
2023-05-05T05:45:02.973Z,10.31
2023-05-05T05:46:01.747Z,10.42
2023-05-05T05:47:02.252Z,10.5
2023-05-05T05:48:01.743Z,10.58
2023-05-05T05:49:02.255Z,10.68
2023-05-05T05:50:01.847Z,10.8
2023-05-05T05:51:02.197Z,10.88
2023-05-05T05:52:01.686Z,10.96
2023-05-05T05:53:02.155Z,11.04
2023-05-05T05:54:01.692Z,11.15
2023-05-05T05:55:04.731Z,11.26
2023-05-05T05:56:01.691Z,11.36
2023-05-05T05:57:02.255Z,11.45
2023-05-05T05:58:01.689Z,11.55
2023-05-05T05:59:02.240Z,11.66
2023-05-05T06:00:02.609Z,11.73
2023-05-05T06:01:03.040Z,11.82
2023-05-05T06:02:02.012Z,11.89
2023-05-05T06:03:01.819Z,11.94
2023-05-05T06:04:02.242Z,12.02
2023-05-05T06:05:02.630Z,12.07
2023-05-05T06:06:02.372Z,12.12
2023-05-05T06:07:01.789Z,12.16
2023-05-05T06:08:03.998Z,12.21
2023-05-05T06:09:01.788Z,12.25
2023-05-05T06:10:25.171Z,12.28
2023-05-05T06:11:01.696Z,12.3
2023-05-05T06:12:04.006Z,12.33
2023-05-05T06:13:01.764Z,12.35
2023-05-05T06:14:02.188Z,12.38
2023-05-05T06:15:02.378Z,12.43
2023-05-05T06:16:02.354Z,12.49
2023-05-05T06:17:01.766Z,12.59
2023-05-05T06:18:02.350Z,12.67
2023-05-05T06:19:01.723Z,12.74
2023-05-05T06:20:03.030Z,12.77
2023-05-05T06:21:01.826Z,12.81
2023-05-05T06:22:02.281Z,12.86
2023-05-05T06:23:01.682Z,12.89
2023-05-05T06:24:02.165Z,12.94
2023-05-05T06:25:04.305Z,12.99
2023-05-05T06:26:04.085Z,13.02
2023-05-05T06:27:01.770Z,13.06
2023-05-05T06:28:02.258Z,13.15
2023-05-05T06:29:01.779Z,13.2
2023-05-05T06:30:02.574Z,13.22
2023-05-05T06:31:01.923Z,13.26
2023-05-05T06:32:02.332Z,13.33
2023-05-05T06:33:01.826Z,13.37
2023-05-05T06:37:02.092Z,13.65
2023-05-05T06:38:02.304Z,13.71
2023-05-05T06:39:03.511Z,13.77
2023-05-05T06:40:03.025Z,13.84
2023-05-05T06:41:01.774Z,13.95
2023-05-05T06:42:03.922Z,14.04
2023-05-05T06:43:03.356Z,14.11
2023-05-05T06:44:02.156Z,14.19
2023-05-05T06:45:02.508Z,14.25
2023-05-05T06:46:02.260Z,14.34
2023-05-05T06:47:01.858Z,14.43
2023-05-05T06:48:02.358Z,14.52
2023-05-05T06:49:03.344Z,14.64
2023-05-05T06:50:04.798Z,14.75
2023-05-05T06:51:01.843Z,14.89
2023-05-05T06:52:02.185Z,15.01
2023-05-05T06:53:01.748Z,15.12
2023-05-05T06:54:02.146Z,15.24
2023-05-05T06:55:02.481Z,15.39
2023-05-05T06:56:03.945Z,15.52
2023-05-05T06:57:01.752Z,15.6
2023-05-05T06:58:02.233Z,15.72
2023-05-05T06:59:01.743Z,15.83
2023-05-05T07:00:02.945Z,15.89
2023-05-05T07:01:04.413Z,16.01
2023-05-05T07:02:04.307Z,16.15
2023-05-05T07:03:01.665Z,16.22
2023-05-05T07:04:01.921Z,16.29
2023-05-05T07:05:02.359Z,16.34
2023-05-05T07:06:01.991Z,16.48
2023-05-05T07:07:01.532Z,16.61
2023-05-05T07:08:02.069Z,16.78
2023-05-05T07:09:01.860Z,16.8
2023-05-05T07:10:02.136Z,16.8
2023-05-05T07:11:02.240Z,16.81
2023-05-05T07:12:01.782Z,16.87
2023-05-05T07:13:02.239Z,16.94
2023-05-05T07:14:03.359Z,17.02
2023-05-05T07:15:12.192Z,17.07
2023-05-05T07:16:03.544Z,17.15
2023-05-05T07:17:02.377Z,17.17
2023-05-05T07:18:01.827Z,17.21
2023-05-05T07:19:02.229Z,17.26
2023-05-05T07:20:01.695Z,17.33
2023-05-05T07:21:03.840Z,17.36
2023-05-05T07:22:01.709Z,17.37
2023-05-05T07:23:02.176Z,17.4
2023-05-05T07:24:01.603Z,17.44
2023-05-05T07:25:04.712Z,17.48
2023-05-05T07:26:02.000Z,17.53
2023-05-05T07:27:01.538Z,17.56
2023-05-05T07:28:01.997Z,17.63
2023-05-05T07:29:01.463Z,17.73
2023-05-05T07:30:02.948Z,17.78
2023-05-05T07:31:01.369Z,17.82
2023-05-05T07:32:01.887Z,17.85
2023-05-05T07:33:01.381Z,17.89
2023-05-05T07:34:01.883Z,17.93
2023-05-05T07:35:02.079Z,18.02
2023-05-05T07:36:02.007Z,18.09
2023-05-05T07:37:01.430Z,18.15
2023-05-05T07:38:03.589Z,18.22
2023-05-05T07:39:03.048Z,18.23
2023-05-05T07:40:02.070Z,18.2
2023-05-05T07:41:01.384Z,18.2
2023-05-05T07:42:01.822Z,18.24
2023-05-05T07:44:01.856Z,18.36
2023-05-05T07:45:02.913Z,18.39
2023-05-05T07:46:01.832Z,18.44
2023-05-05T07:47:03.934Z,18.51
2023-05-05T07:48:01.771Z,18.56
2023-05-05T07:49:02.169Z,18.62
2023-05-05T07:50:01.697Z,18.7
2023-05-05T07:51:02.201Z,18.72
2023-05-05T07:52:01.602Z,18.76
2023-05-05T07:53:13.546Z,18.79
2023-05-05T07:54:01.642Z,18.8
2023-05-05T07:55:02.930Z,18.83
2023-05-05T07:56:01.718Z,18.85
2023-05-05T07:57:03.900Z,18.88
2023-05-05T07:58:01.713Z,18.94
2023-05-05T07:59:02.173Z,18.99
2023-05-05T08:00:02.280Z,19
2023-05-05T08:01:02.320Z,19.06
2023-05-05T08:02:01.767Z,19.12
2023-05-05T08:03:02.381Z,19.16
2023-05-05T08:04:01.775Z,19.2
2023-05-05T08:05:03.126Z,19.26
2023-05-05T08:06:01.794Z,19.32
2023-05-05T08:07:04.024Z,19.38
2023-05-05T08:08:01.713Z,19.42
2023-05-05T08:09:02.205Z,19.51
2023-05-05T08:10:02.621Z,19.56
2023-05-05T08:12:01.867Z,19.68
2023-05-05T08:13:02.339Z,19.72
2023-05-05T08:14:03.481Z,19.74
2023-05-05T08:16:04.408Z,19.91
2023-05-05T08:17:03.429Z,19.92
2023-05-05T08:18:02.289Z,20.02
2023-05-05T08:19:01.639Z,20.11
2023-05-05T08:20:04.048Z,20.16
2023-05-05T08:21:01.659Z,20.19
2023-05-05T08:22:02.160Z,20.24
2023-05-05T08:23:01.614Z,20.26
2023-05-05T08:24:02.078Z,20.35
2023-05-05T08:25:02.238Z,20.53
2023-05-05T08:26:02.237Z,20.66
2023-05-05T08:27:01.674Z,20.79
2023-05-05T08:28:02.185Z,20.86
2023-05-05T08:29:01.625Z,20.89
2023-05-05T08:30:02.990Z,20.95
2023-05-05T08:31:01.671Z,21.01
2023-05-05T08:32:02.104Z,21.09
2023-05-05T08:33:03.315Z,21.19
2023-05-05T08:34:02.080Z,21.32
2023-05-05T08:35:02.378Z,21.45
2023-05-05T08:36:03.775Z,21.58
2023-05-05T08:37:01.596Z,21.69
2023-05-05T08:38:03.760Z,21.77
2023-05-05T08:39:03.188Z,21.88
2023-05-05T08:40:02.326Z,21.87
2023-05-05T08:41:01.534Z,21.76
2023-05-05T08:42:02.068Z,21.82
2023-05-05T08:43:01.521Z,21.94
2023-05-05T08:44:02.005Z,22.11
2023-05-05T08:45:02.356Z,22.27
2023-05-05T08:46:03.685Z,22.42
2023-05-05T08:47:01.736Z,22.48
2023-05-05T08:48:02.074Z,22.52
2023-05-05T08:49:01.437Z,22.64
2023-05-05T08:50:02.596Z,22.66
2023-05-05T08:51:04.006Z,22.71
2023-05-05T08:52:02.026Z,22.69
2023-05-05T08:53:01.467Z,22.75
2023-05-05T08:54:01.918Z,22.83
2023-05-05T08:55:02.330Z,22.93
2023-05-05T08:56:02.096Z,23.07
2023-05-05T08:57:01.543Z,23.16
2023-05-05T08:58:02.005Z,23.2
2023-05-05T08:59:01.553Z,23.31
2023-05-05T09:00:02.106Z,23.38
2023-05-05T09:01:03.383Z,23.43
2023-05-05T09:02:03.031Z,23.45
2023-05-05T09:03:02.848Z,23.45
2023-05-05T09:04:03.177Z,23.38
2023-05-05T09:05:02.773Z,23.36
2023-05-05T09:06:01.822Z,23.4
2023-05-05T09:08:01.875Z,23.32
2023-05-05T09:09:03.044Z,23.3
2023-05-05T09:10:02.758Z,23.37
2023-05-05T09:11:01.642Z,23.41
2023-05-05T09:12:02.187Z,23.52
2023-05-05T09:13:01.710Z,23.51
2023-05-05T09:14:02.156Z,23.56
2023-05-05T09:15:04.404Z,23.62
2023-05-05T09:16:03.646Z,23.62
2023-05-05T09:17:03.204Z,23.58
2023-05-05T09:18:03.756Z,23.55
2023-05-05T09:19:01.606Z,23.51
2023-05-05T09:20:04.898Z,23.52
2023-05-05T09:21:03.533Z,23.52
2023-05-05T09:22:01.383Z,23.47
2023-05-05T09:23:01.866Z,23.46
2023-05-05T09:24:07.817Z,23.52
2023-05-05T09:25:02.667Z,23.59
2023-05-05T09:26:04.034Z,23.62
2023-05-05T09:27:01.762Z,23.64
2023-05-05T09:28:02.257Z,23.67
2023-05-05T09:29:01.690Z,23.74
2023-05-05T09:30:02.194Z,23.76
2023-05-05T09:31:01.732Z,23.73
2023-05-05T09:32:02.143Z,23.72
2023-05-05T09:33:01.646Z,23.68
2023-05-05T09:34:02.088Z,23.66
2023-05-05T09:35:02.169Z,23.6
2023-05-05T09:36:02.072Z,23.55
2023-05-05T09:37:01.699Z,23.53
2023-05-05T09:38:02.091Z,23.55
2023-05-05T09:39:01.513Z,23.55
2023-05-05T09:40:02.039Z,23.53
2023-05-05T09:41:01.650Z,23.49
2023-05-05T09:42:01.991Z,23.38
2023-05-05T09:43:01.458Z,23.27
2023-05-05T09:44:01.909Z,23.2
2023-05-05T09:45:02.140Z,23.21
2023-05-05T09:46:02.130Z,23.27
2023-05-05T09:47:01.519Z,23.26
2023-05-05T09:48:02.057Z,23.18
2023-05-05T09:49:01.450Z,23.05
2023-05-05T09:50:02.779Z,22.96
2023-05-05T09:51:01.516Z,22.93
2023-05-05T09:52:03.666Z,22.98
2023-05-05T09:53:03.115Z,23.08
2023-05-05T09:54:03.591Z,23.2
2023-05-05T09:55:02.188Z,23.28
2023-05-05T09:56:01.973Z,23.3
2023-05-05T09:57:03.222Z,23.36
2023-05-05T09:58:01.936Z,23.36
2023-05-05T09:59:01.365Z,23.35
2023-05-05T10:00:02.944Z,23.38
2023-05-05T10:01:01.468Z,23.44
2023-05-05T10:02:03.654Z,23.46
2023-05-05T10:03:01.462Z,23.53
2023-05-05T10:04:03.535Z,23.67
2023-05-05T10:05:02.551Z,23.77
2023-05-05T10:06:01.950Z,23.76
2023-05-05T10:07:01.481Z,23.72
2023-05-05T10:08:01.919Z,23.71
2023-05-05T10:09:01.372Z,23.83
2023-05-05T10:10:02.246Z,23.96
2023-05-05T10:11:01.445Z,24.05
2023-05-05T10:12:01.945Z,24.17
2023-05-05T10:13:01.447Z,24.21
2023-05-05T10:14:01.846Z,24.14
2023-05-05T10:15:02.335Z,24.11
2023-05-05T10:16:02.001Z,24.13
2023-05-05T10:17:01.474Z,24.18
2023-05-05T10:18:08.250Z,24.24
2023-05-05T10:19:01.352Z,24.24
2023-05-05T10:20:04.111Z,24.2
2023-05-05T10:21:01.525Z,24.27
2023-05-05T10:22:02.102Z,24.33
2023-05-05T10:23:01.510Z,24.36
2023-05-05T10:24:03.688Z,24.4
2023-05-05T10:25:02.141Z,24.34
2023-05-05T10:26:02.015Z,24.27
2023-05-05T10:27:01.551Z,24.29
2023-05-05T10:28:02.006Z,24.31
2023-05-05T10:29:01.456Z,24.31
2023-05-05T10:30:02.107Z,24.32
2023-05-05T10:31:07.832Z,24.4
2023-05-05T10:32:02.706Z,24.45
2023-05-05T10:33:22.280Z,24.42
2023-05-05T10:34:01.853Z,24.44
2023-05-05T10:35:03.026Z,24.35
2023-05-05T10:36:01.768Z,24.27
2023-05-05T10:37:02.185Z,24.26
2023-05-05T10:38:01.607Z,24.1
2023-05-05T10:39:03.744Z,24.04
2023-05-05T10:40:02.377Z,24.04
2023-05-05T10:41:03.760Z,24.04
2023-05-05T10:42:01.532Z,24.03
2023-05-05T10:43:01.989Z,24.09
2023-05-05T10:44:04.462Z,24.08
2023-05-05T10:45:02.756Z,24.21
2023-05-05T10:46:01.719Z,24.2
2023-05-05T10:47:02.269Z,24.27
2023-05-05T10:48:01.802Z,24.3
2023-05-05T10:49:02.169Z,24.32
2023-05-05T10:50:02.445Z,24.38
2023-05-05T10:51:02.165Z,24.41
2023-05-05T10:52:03.418Z,24.46
2023-05-05T10:53:02.255Z,24.51
2023-05-05T10:54:01.712Z,24.55
2023-05-05T10:55:01.937Z,24.56
2023-05-05T10:56:01.839Z,24.47
2023-05-05T10:57:01.291Z,24.34
2023-05-05T10:58:01.856Z,24.2
2023-05-05T10:59:02.314Z,24.14
2023-05-05T11:00:01.783Z,24.16
2023-05-05T11:01:02.276Z,24.14
2023-05-05T11:02:03.525Z,24.14
2023-05-05T11:03:04.013Z,24.2
2023-05-05T11:04:03.587Z,24.13
2023-05-05T11:05:02.942Z,24.08
2023-05-05T11:06:01.784Z,24.01
2023-05-05T11:07:02.160Z,23.96
2023-05-05T11:08:03.281Z,23.91
2023-05-05T11:09:02.064Z,23.87
2023-05-05T11:10:02.012Z,23.82
2023-05-05T11:11:02.073Z,23.8
2023-05-05T11:12:03.270Z,23.75
2023-05-05T11:13:02.121Z,23.73
2023-05-05T11:14:01.554Z,23.79
2023-05-05T11:15:02.991Z,23.84
2023-05-05T11:16:03.292Z,23.89
2023-05-05T11:17:02.177Z,23.9
2023-05-05T11:18:04.875Z,23.99
2023-05-05T11:19:02.092Z,24.09
2023-05-05T11:20:04.371Z,24.2
2023-05-05T11:21:01.352Z,24.26
2023-05-05T11:22:01.849Z,24.29
2023-05-05T11:23:01.388Z,24.32
2023-05-05T11:24:01.860Z,24.21
2023-05-05T11:25:02.612Z,24.03
2023-05-05T11:26:01.993Z,24.02
2023-05-05T11:27:01.620Z,24.12
2023-05-05T11:28:02.000Z,24.23
2023-05-05T11:29:03.205Z,24.3
2023-05-05T11:30:04.293Z,24.41
2023-05-05T11:31:01.891Z,24.49
2023-05-05T11:32:03.118Z,24.54
2023-05-05T11:33:01.894Z,24.56
2023-05-05T11:34:01.358Z,24.56
2023-05-05T11:35:02.688Z,24.59
2023-05-05T11:36:03.451Z,24.63
2023-05-05T11:37:02.088Z,24.69
2023-05-05T11:38:01.588Z,24.71
2023-05-05T11:39:02.090Z,24.7
2023-05-05T11:40:01.720Z,24.73
2023-05-05T11:41:02.413Z,24.83
2023-05-05T11:42:06.560Z,24.8
2023-05-05T11:43:06.403Z,24.72
2023-05-05T11:44:02.067Z,24.68
2023-05-05T11:45:02.263Z,24.72
2023-05-05T11:46:02.233Z,24.76
2023-05-05T11:47:01.621Z,24.76
2023-05-05T11:48:02.116Z,24.82
2023-05-05T11:49:01.606Z,24.83
2023-05-05T11:50:02.128Z,24.8
2023-05-05T11:51:01.602Z,24.83
2023-05-05T11:52:02.224Z,24.85
2023-05-05T11:53:03.295Z,24.88
2023-05-05T11:54:02.104Z,24.86
2023-05-05T11:55:02.374Z,24.84
2023-05-05T11:56:02.252Z,24.89
2023-05-05T11:57:01.631Z,24.86
2023-05-05T11:58:03.773Z,24.84
2023-05-05T11:59:01.595Z,24.9
2023-05-05T12:00:02.113Z,24.95
2023-05-05T12:01:01.531Z,25.05
2023-05-05T12:02:02.121Z,25.16
2023-05-05T12:03:01.598Z,25.19
2023-05-05T12:04:03.896Z,25.2
2023-05-05T12:05:02.163Z,25.24
2023-05-05T12:06:02.139Z,25.18
2023-05-05T12:07:01.540Z,25.16
2023-05-05T12:08:02.018Z,25.14
2023-05-05T12:09:01.608Z,25.08
2023-05-05T12:10:02.139Z,24.97
2023-05-05T12:11:01.534Z,24.9
2023-05-05T12:12:02.001Z,24.88
2023-05-05T12:13:01.567Z,24.95
2023-05-05T12:14:02.026Z,25.04
2023-05-05T12:15:02.343Z,25.06
2023-05-05T12:16:03.809Z,25
2023-05-05T12:17:01.521Z,24.95
2023-05-05T12:18:03.252Z,24.92
2023-05-05T12:19:03.276Z,24.87
2023-05-05T12:20:03.782Z,24.79
2023-05-05T12:21:01.465Z,24.75
2023-05-05T12:22:03.607Z,24.84
2023-05-05T12:23:01.436Z,24.84
2023-05-05T12:24:01.935Z,24.76
2023-05-05T12:25:03.857Z,24.73
2023-05-05T12:26:02.444Z,24.74
2023-05-05T12:27:01.833Z,24.71
2023-05-05T12:28:03.989Z,24.71
2023-05-05T12:29:01.766Z,24.73
2023-05-05T12:30:02.385Z,24.78
2023-05-05T12:31:03.452Z,24.84
2023-05-05T12:32:02.312Z,24.89
2023-05-05T12:33:01.798Z,24.92
2023-05-05T12:34:02.239Z,24.92
2023-05-05T12:35:04.421Z,24.92
2023-05-05T12:36:01.558Z,24.93
2023-05-05T12:37:01.982Z,25
2023-05-05T12:38:01.432Z,25.16
2023-05-05T12:39:03.774Z,25.36
2023-05-05T12:40:01.808Z,25.54
2023-05-05T12:41:02.056Z,25.68
2023-05-05T12:42:01.518Z,25.82
2023-05-05T12:43:02.021Z,25.96
2023-05-05T12:44:01.522Z,26.02
2023-05-05T12:45:02.801Z,25.94
2023-05-05T12:46:03.401Z,26.04
2023-05-05T12:47:02.145Z,26.15
2023-05-05T12:48:01.714Z,26.25
2023-05-05T12:49:02.151Z,26.33
2023-05-05T12:50:01.994Z,26.33
2023-05-05T12:51:01.364Z,26.34
2023-05-05T12:52:01.842Z,26.27
2023-05-05T12:53:02.350Z,26.26
2023-05-05T12:54:01.857Z,26.16
2023-05-05T12:55:02.056Z,26.08
2023-05-05T12:56:01.853Z,26.06
2023-05-05T12:57:03.051Z,26.02
2023-05-05T12:58:01.886Z,26.08
2023-05-05T13:00:02.645Z,26.23
2023-05-05T13:01:02.359Z,26.26
2023-05-05T13:02:02.803Z,26.27
2023-05-05T13:03:01.720Z,26.36
2023-05-05T13:04:03.625Z,26.4
2023-05-05T13:05:03.827Z,26.37
2023-05-05T13:06:02.341Z,26.28
2023-05-05T13:07:01.788Z,26.26
2023-05-05T13:08:02.272Z,26.22
2023-05-05T13:09:01.705Z,26.23
2023-05-05T13:10:02.177Z,26.25
2023-05-05T13:11:03.304Z,26.3
2023-05-05T13:12:02.203Z,26.27
2023-05-05T13:13:01.640Z,26.31
2023-05-05T13:14:02.126Z,26.39
2023-05-05T13:15:02.845Z,26.41
2023-05-05T13:16:02.219Z,26.48
2023-05-05T13:17:01.647Z,26.45
2023-05-05T13:18:03.808Z,26.51
2023-05-05T13:19:01.628Z,26.54
2023-05-05T13:20:02.265Z,26.58